Date,TemperatureHighF,TemperatureAvgF,TemperatureLowF,DewpointHighF,DewpointAvgF,DewpointLowF,HumidityHigh,HumidityAvg,HumidityLow,PressureMaxIn,PressureMinIn,WindSpeedMaxMPH,WindSpeedAvgMPH,GustSpeedMaxMPH,PrecipitationSumIn
2013-2-1,73.9,57.3,43.2,41.3,35.1,24.6,70,46,25,30.26,30.08,0,0,0,0.00
2013-2-2,80.5,60.4,41.6,53.6,44.6,37.6,89,59,31,30.18,30.05,0,0,0,0.00
2013-2-3,77.4,60.3,45.2,47.3,37.7,27.9,68,46,18,30.24,29.91,0,0,0,0.00
2013-2-4,76.5,62.8,56.7,58.2,54.1,47.5,89,74,50,29.91,29.68,0,0,0,0.00
2013-2-5,81.8,64.5,52.9,54.9,46.5,37.3,89,57,21,29.88,29.74,0,0,0,0.00
2013-2-6,81.1,65.0,58.1,61.0,56.3,49.7,92,75,42,29.89,29.71,0,0,0,0.04
2013-2-7,84.9,67.3,58.7,59.8,53.9,37.7,87,65,30,29.97,29.72,0,0,0,0.00
2013-2-8,74.4,58.8,47.1,44.9,34.4,23.3,68,44,17,30.12,29.96,0,0,0,0.00
2013-2-9,67.8,58.3,53.1,64.8,53.8,36.5,93,85,50,29.99,29.67,0,0,0,0.04
2013-2-10,67.9,61.6,54.4,65.4,45.2,28.4,92,59,25,29.92,29.61,0,0,0,0.10
2013-2-11,58.7,53.4,50.5,49.5,46.0,41.0,90,76,57,29.99,29.87,0,0,0,0.20
2013-2-12,69.8,58.0,50.5,55.8,45.4,24.1,93,69,23,29.95,29.71,0,0,0,0.04
2013-2-13,66.4,49.7,39.2,38.5,32.8,25.9,77,55,26,30.06,29.93,0,0,0,0.00
2013-2-14,74.0,54.3,38.0,40.6,34.8,30.8,82,52,22,30.04,29.89,0,0,0,0.00
2013-2-15,66.0,51.3,40.6,40.4,34.8,22.6,79,55,35,30.29,29.96,0,0,0,0.00
2013-2-16,67.6,49.9,35.2,28.7,25.3,21.0,60,40,21,30.36,30.11,0,0,0,0.00
2013-2-17,72.7,57.0,39.9,50.0,35.8,27.4,69,47,24,30.10,29.85,0,0,0,0.00
2013-2-18,81.4,67.4,56.9,58.6,46.0,26.1,79,52,16,29.97,29.70,0,0,0,0.00
2013-2-19,74.0,58.0,43.5,33.9,30.1,22.3,61,37,16,30.17,29.97,0,0,0,0.00
2013-2-20,64.7,56.5,52.2,62.4,46.8,31.2,93,72,40,30.01,29.55,0,0,0,0.04
2013-2-21,78.3,66.8,53.8,64.9,41.5,18.4,93,49,12,29.75,29.45,0,0,0,0.01
2013-2-22,63.1,50.9,44.2,38.4,32.6,26.9,71,51,30,29.96,29.74,0,0,0,0.00
2013-2-23,73.7,53.5,39.6,38.3,31.8,26.9,64,46,24,29.97,29.76,0,0,0,0.00
2013-2-24,76.7,57.9,39.8,56.7,45.1,33.3,86,64,39,29.82,29.47,0,0,0,0.00
2013-2-25,63.9,55.8,46.2,57.8,35.3,17.9,92,51,17,29.72,29.42,0,0,0,0.02
2013-2-26,68.8,53.3,39.6,32.9,27.6,24.9,60,39,21,29.86,29.71,0,0,0,0.00
2013-2-27,64.5,53.2,45.1,33.0,26.5,18.2,52,36,20,30.13,29.76,0,0,0,0.00
2013-2-28,64.5,49.6,41.5,28.0,25.1,19.5,57,40,20,30.25,30.09,0,0,0,0.00